Time;durP1;ratioP1;P1;durP2;ratioP2;P2;SDS_P1;SDS_P2;PMS_P1;PMS_P2;Temp;Humidity;BMP_temperature;BMP_pressure;BME280_temperature;BME280_humidity;BME280_pressure;Samples;Min_cycle;Max_cycle;Signal;HPM_P1;HPM_P2
2022/10/11 00:01:44;;;;;;;5.03;3.65;;;23.10;57.70;;;;;;5002212;28;20537;-68
2022/10/11 00:04:09;;;;;;;5.80;3.85;;;23.10;57.70;;;;;;5000836;28;20046;-68
2022/10/11 00:06:42;;;;;;;5.80;4.00;;;23.10;57.70;;;;;;4984560;28;20061;-69
2022/10/11 00:09:10;;;;;;;5.75;3.90;;;23.10;57.70;;;;;;4988735;28;20034;-68
2022/10/11 00:11:37;;;;;;;5.43;3.75;;;23.10;57.70;;;;;;4998307;28;20025;-68
2022/10/11 00:14:03;;;;;;;6.03;3.92;;;23.10;57.70;;;;;;4999280;28;20573;-68
2022/10/11 00:16:29;;;;;;;5.72;3.75;;;23.00;57.70;;;;;;4996056;28;20025;-68
2022/10/11 00:18:54;;;;;;;5.25;3.65;;;23.00;57.60;;;;;;4993265;28;20035;-69
2022/10/11 00:21:20;;;;;;;4.90;3.53;;;23.00;57.60;;;;;;4996619;28;20105;-69
2022/10/11 00:23:46;;;;;;;4.68;3.45;;;23.00;57.60;;;;;;5001165;28;20034;-68
2022/10/11 00:26:12;;;;;;;5.50;3.67;;;23.00;57.70;;;;;;4997797;28;20035;-68
2022/10/11 00:28:39;;;;;;;5.35;3.78;;;23.00;57.70;;;;;;4994122;28;20034;-68
2022/10/11 00:31:14;;;;;;;4.97;3.45;;;23.00;57.70;;;;;;4998589;28;20034;-68
2022/10/11 00:33:40;;;;;;;4.88;3.28;;;23.00;57.70;;;;;;4994716;28;20030;-68
2022/10/11 00:36:07;;;;;;;4.60;3.33;;;23.00;57.70;;;;;;4980360;28;20029;-68
2022/10/11 00:38:33;;;;;;;5.40;3.65;;;23.00;57.70;;;;;;4978081;28;20030;-68
2022/10/11 00:40:59;;;;;;;5.18;3.63;;;23.00;57.70;;;;;;5000567;28;20124;-68
2022/10/11 00:43:28;;;;;;;5.25;3.70;;;23.00;57.70;;;;;;4998922;28;20034;-68
2022/10/11 00:45:56;;;;;;;4.93;3.22;;;23.00;57.70;;;;;;5000063;28;20350;-68
2022/10/11 00:48:26;;;;;;;4.40;3.20;;;22.90;57.70;;;;;;5002534;28;20109;-68
2022/10/11 00:50:53;;;;;;;5.63;3.75;;;23.00;57.70;;;;;;4999889;28;20073;-68
2022/10/11 00:53:20;;;;;;;4.90;3.40;;;23.00;57.70;;;;;;4998007;28;20022;-68
2022/10/11 00:55:54;;;;;;;4.32;2.88;;;22.90;57.60;;;;;;4999665;28;20026;-67
2022/10/11 00:58:22;;;;;;;4.95;3.13;;;22.90;57.60;;;;;;4998729;28;20034;-68
2022/10/11 01:00:48;;;;;;;5.00;3.50;;;22.90;57.60;;;;;;4995208;28;20048;-68
2022/10/11 01:03:18;;;;;;;4.60;3.30;;;22.90;57.70;;;;;;5001128;28;20034;-68
2022/10/11 01:05:45;;;;;;;4.65;3.33;;;22.90;57.70;;;;;;4995296;28;20049;-68
2022/10/11 01:08:11;;;;;;;4.85;3.30;;;22.90;57.70;;;;;;4997775;28;20030;-69
2022/10/11 01:10:37;;;;;;;5.15;3.70;;;22.90;57.70;;;;;;4994093;28;20021;-68
2022/10/11 01:13:09;;;;;;;4.40;3.53;;;22.90;57.70;;;;;;4976071;28;20026;-68
2022/10/11 01:15:55;;;;;;;4.70;3.38;;;22.90;57.70;;;;;;5000852;28;20046;-68
2022/10/11 01:18:29;;;;;;;4.70;3.25;;;22.90;57.70;;;;;;5000119;28;20081;-68
2022/10/11 01:21:19;;;;;;;4.57;3.10;;;22.90;57.70;;;;;;4998565;28;20030;-68
2022/10/11 01:23:48;;;;;;;4.60;3.20;;;22.90;57.70;;;;;;4999677;28;20045;-67
2022/10/11 01:26:35;;;;;;;4.45;3.38;;;22.90;57.70;;;;;;4996500;28;20659;-68
2022/10/11 01:29:12;;;;;;;4.30;3.40;;;22.90;57.70;;;;;;4995786;28;20030;-68
2022/10/11 01:31:48;;;;;;;4.93;3.33;;;22.90;57.70;;;;;;4979261;28;20031;-67
2022/10/11 01:34:39;;;;;;;4.38;3.20;;;22.90;57.70;;;;;;4999674;28;20064;-68
2022/10/11 01:37:32;;;;;;;6.38;3.60;;;22.80;57.60;;;;;;4983521;28;20058;-67
2022/10/11 01:40:01;;;;;;;4.85;3.15;;;22.80;57.70;;;;;;4998377;28;20113;-67
2022/10/11 01:42:28;;;;;;;5.70;3.50;;;22.80;57.60;;;;;;4997951;28;20058;-68
2022/10/11 01:44:55;;;;;;;4.78;3.40;;;22.80;57.70;;;;;;4996567;28;20410;-69
2022/10/11 01:47:22;;;;;;;4.10;2.90;;;22.80;57.70;;;;;;4993847;28;20034;-67
2022/10/11 01:49:59;;;;;;;4.03;3.10;;;22.80;57.70;;;;;;4995316;28;20046;-68
2022/10/11 01:52:32;;;;;;;4.45;3.05;;;22.80;57.70;;;;;;4968597;28;20022;-67
2022/10/11 01:55:29;;;;;;;4.57;3.30;;;22.80;57.70;;;;;;4999407;28;20104;-68
2022/10/11 01:58:25;;;;;;;4.30;2.97;;;22.80;57.70;;;;;;4999554;28;20037;-68
2022/10/11 02:00:58;;;;;;;4.22;3.10;;;22.80;57.70;;;;;;4998328;28;20506;-68
2022/10/11 02:03:57;;;;;;;4.28;2.70;;;22.80;57.70;;;;;;4995420;28;20089;-68
2022/10/11 02:06:42;;;;;;;4.95;3.20;;;22.80;57.70;;;;;;4994211;28;20073;-69
2022/10/11 02:09:40;;;;;;;4.30;2.90;;;22.70;57.70;;;;;;4997389;28;20550;-67
2022/10/11 02:12:10;;;;;;;4.40;3.00;;;22.70;57.70;;;;;;4994002;28;20089;-68
2022/10/11 02:14:41;;;;;;;4.32;2.70;;;22.70;57.70;;;;;;4991405;28;20125;-68
2022/10/11 02:17:15;;;;;;;4.30;2.97;;;22.70;57.70;;;;;;4981226;28;20036;-68
2022/10/11 02:19:47;;;;;;;4.07;3.08;;;22.70;57.70;;;;;;4999740;28;20022;-70
2022/10/11 02:22:18;;;;;;;4.38;2.92;;;22.70;57.70;;;;;;4964995;28;20027;-68
2022/10/11 02:24:49;;;;;;;3.70;2.80;;;22.80;57.70;;;;;;4998088;28;20105;-69
2022/10/11 02:27:19;;;;;;;5.82;3.10;;;22.70;57.70;;;;;;4979929;28;20660;-68
2022/10/11 02:29:47;;;;;;;4.35;2.90;;;22.70;57.70;;;;;;4995870;28;20074;-68
2022/10/11 02:32:15;;;;;;;3.88;2.88;;;22.70;57.70;;;;;;4994540;28;20113;-69
2022/10/11 02:34:46;;;;;;;4.05;2.85;;;22.70;57.70;;;;;;4997672;28;20022;-69
2022/10/11 02:37:29;;;;;;;4.10;2.80;;;22.70;57.70;;;;;;4998253;28;20245;-68
2022/10/11 02:40:26;;;;;;;3.90;2.60;;;22.70;57.70;;;;;;4999029;28;20038;-69
2022/10/11 02:43:06;;;;;;;3.80;2.72;;;22.70;57.70;;;;;;4992192;28;20042;-68
2022/10/11 02:45:40;;;;;;;4.05;3.00;;;22.70;57.80;;;;;;4998249;28;20504;-69
2022/10/11 02:48:11;;;;;;;3.90;2.70;;;22.70;57.80;;;;;;4992529;28;20503;-68
2022/10/11 02:50:39;;;;;;;3.80;2.67;;;22.70;57.70;;;;;;4991207;28;20458;-68
2022/10/11 02:53:05;;;;;;;4.20;2.50;;;22.70;57.80;;;;;;4993110;28;20061;-69
2022/10/11 02:55:31;;;;;;;3.72;2.90;;;22.70;57.80;;;;;;4994657;28;20022;-68
2022/10/11 02:57:57;;;;;;;4.03;2.88;;;22.70;57.80;;;;;;4996334;28;20022;-69
2022/10/11 03:00:22;;;;;;;4.47;2.90;;;22.60;57.70;;;;;;4983711;28;20033;-68
2022/10/11 03:02:48;;;;;;;4.13;3.20;;;22.70;57.80;;;;;;4993983;28;20120;-68
2022/10/11 03:05:14;;;;;;;4.10;2.70;;;22.70;57.80;;;;;;4998426;28;20072;-68
2022/10/11 03:07:39;;;;;;;4.05;2.92;;;22.60;57.70;;;;;;4996591;28;20034;-69
2022/10/11 03:10:06;;;;;;;4.00;2.83;;;22.60;57.70;;;;;;4997360;28;20461;-68
2022/10/11 03:12:32;;;;;;;4.22;2.92;;;22.60;57.70;;;;;;4998796;28;20076;-69
2022/10/11 03:14:57;;;;;;;3.47;2.50;;;22.60;57.70;;;;;;4981705;28;20109;-69
2022/10/11 03:17:26;;;;;;;3.70;2.70;;;22.60;57.80;;;;;;4978929;28;20054;-68
2022/10/11 03:19:52;;;;;;;3.65;2.80;;;22.60;57.70;;;;;;5001195;28;20073;-68
2022/10/11 03:22:18;;;;;;;3.38;2.53;;;22.60;57.80;;;;;;5001378;28;20026;-68
2022/10/11 03:24:43;;;;;;;3.47;2.53;;;22.60;57.80;;;;;;4998603;28;20035;-68
2022/10/11 03:27:09;;;;;;;3.75;2.63;;;22.60;57.80;;;;;;4996918;28;20030;-68
2022/10/11 03:29:35;;;;;;;3.35;2.55;;;22.60;57.80;;;;;;5001334;28;20031;-68
2022/10/11 03:32:01;;;;;;;3.70;2.63;;;22.60;57.80;;;;;;4980342;28;20370;-68
2022/10/11 03:34:26;;;;;;;4.22;2.70;;;22.60;57.80;;;;;;4997043;28;20033;-68
2022/10/11 03:36:52;;;;;;;3.53;2.40;;;22.60;57.80;;;;;;4999227;28;20030;-68
2022/10/11 03:39:18;;;;;;;4.05;3.00;;;22.60;57.80;;;;;;5001561;28;20065;-69
2022/10/11 03:41:44;;;;;;;4.47;2.63;;;22.60;57.80;;;;;;4994570;28;20084;-68
2022/10/11 03:44:09;;;;;;;3.95;2.50;;;22.60;57.80;;;;;;4979375;28;20042;-69
2022/10/11 03:46:35;;;;;;;3.90;2.40;;;22.60;57.80;;;;;;4995466;28;20083;-68
2022/10/11 03:49:00;;;;;;;3.60;2.55;;;22.60;57.80;;;;;;4999263;28;20026;-68
2022/10/11 03:51:26;;;;;;;3.28;2.45;;;22.60;57.80;;;;;;5002510;28;20513;-68
2022/10/11 03:53:52;;;;;;;3.13;2.25;;;22.60;57.80;;;;;;5002664;28;20650;-68
2022/10/11 03:56:17;;;;;;;3.70;2.50;;;22.50;57.80;;;;;;5001813;28;20026;-68
2022/10/11 03:58:43;;;;;;;3.30;2.30;;;22.50;57.80;;;;;;5001634;28;20413;-68
2022/10/11 04:01:09;;;;;;;3.75;2.55;;;22.50;57.80;;;;;;4990702;28;20035;-68
2022/10/11 04:03:34;;;;;;;3.30;2.38;;;22.50;57.80;;;;;;4998241;28;20105;-69
2022/10/11 04:06:00;;;;;;;3.20;2.47;;;22.60;57.90;;;;;;5001593;28;20530;-68
2022/10/11 04:08:26;;;;;;;3.08;2.10;;;22.60;57.90;;;;;;4994846;28;20026;-69
2022/10/11 04:10:51;;;;;;;3.25;2.33;;;22.60;57.90;;;;;;4978386;28;20022;-69
2022/10/11 04:13:20;;;;;;;4.22;2.75;;;22.50;57.90;;;;;;4998840;28;20026;-68
2022/10/11 04:15:45;;;;;;;4.30;2.30;;;22.50;57.90;;;;;;4954778;28;20047;-68
2022/10/11 04:18:11;;;;;;;4.18;2.53;;;22.60;57.90;;;;;;4980825;28;20050;-68
2022/10/11 04:20:37;;;;;;;3.35;2.53;;;22.50;57.90;;;;;;4971687;28;20390;-68
2022/10/11 04:23:02;;;;;;;3.50;2.40;;;22.50;57.90;;;;;;4975067;28;20027;-68
2022/10/11 04:25:28;;;;;;;3.42;2.50;;;22.50;57.90;;;;;;4979541;28;20502;-69
2022/10/11 04:27:54;;;;;;;3.60;2.50;;;22.50;57.90;;;;;;4981251;28;20391;-68
2022/10/11 04:30:20;;;;;;;3.88;2.53;;;22.50;58.00;;;;;;4982042;28;20047;-68
2022/10/11 04:32:45;;;;;;;3.65;2.50;;;22.50;58.00;;;;;;4979654;28;20030;-68
2022/10/11 04:35:11;;;;;;;3.63;2.40;;;22.50;58.00;;;;;;4981742;28;20109;-68
2022/10/11 04:37:37;;;;;;;3.60;2.20;;;22.50;58.00;;;;;;4983290;28;20029;-68
2022/10/11 04:40:05;;;;;;;3.47;2.50;;;22.50;58.00;;;;;;4980559;28;20382;-68
2022/10/11 04:42:30;;;;;;;3.95;2.70;;;22.50;58.00;;;;;;4987302;28;20084;-68
2022/10/11 04:44:56;;;;;;;3.70;2.35;;;22.50;58.00;;;;;;4985306;28;20398;-69
2022/10/11 04:47:22;;;;;;;3.90;2.65;;;22.50;58.00;;;;;;4978908;28;20065;-68
2022/10/11 04:49:50;;;;;;;3.78;2.72;;;22.50;58.00;;;;;;4978763;28;20031;-68
2022/10/11 04:52:16;;;;;;;4.13;2.67;;;22.50;58.00;;;;;;4981988;28;20029;-68
2022/10/11 04:54:41;;;;;;;4.13;2.75;;;22.50;58.10;;;;;;4976746;28;20383;-69
2022/10/11 04:57:07;;;;;;;4.20;2.50;;;22.50;58.10;;;;;;4977927;28;20057;-68
2022/10/11 04:59:33;;;;;;;3.60;2.42;;;22.50;58.10;;;;;;4978801;28;20039;-67
2022/10/11 05:01:58;;;;;;;3.38;2.08;;;22.50;58.10;;;;;;4976445;28;20070;-68
2022/10/11 05:04:24;;;;;;;4.97;2.42;;;22.50;58.60;;;;;;4978004;28;20098;-68
2022/10/11 05:06:50;;;;;;;3.75;2.35;;;22.50;58.20;;;;;;4979383;28;20058;-68
2022/10/11 05:09:15;;;;;;;3.55;2.38;;;22.50;58.20;;;;;;4976859;28;20038;-68
2022/10/11 05:11:41;;;;;;;3.97;2.63;;;22.50;58.20;;;;;;4974161;28;20019;-68
2022/10/11 05:14:06;;;;;;;3.67;2.22;;;22.50;58.20;;;;;;4980457;28;20025;-68
2022/10/11 05:16:32;;;;;;;3.60;2.50;;;22.50;58.20;;;;;;5000464;28;20034;-68
2022/10/11 05:18:58;;;;;;;3.55;2.50;;;22.50;58.20;;;;;;4999173;28;20029;-68
2022/10/11 05:21:25;;;;;;;3.53;2.40;;;22.50;58.20;;;;;;5002587;28;20041;-68
2022/10/11 05:23:52;;;;;;;3.55;2.35;;;22.50;58.20;;;;;;4999585;28;20121;-68
2022/10/11 05:26:19;;;;;;;3.92;2.30;;;22.40;58.20;;;;;;4997819;28;20410;-69
2022/10/11 05:28:46;;;;;;;3.97;2.50;;;22.40;58.20;;;;;;4999087;28;20077;-68
2022/10/11 05:31:12;;;;;;;3.28;2.30;;;22.40;58.20;;;;;;4998560;28;20061;-68
2022/10/11 05:33:37;;;;;;;3.63;2.40;;;22.40;58.20;;;;;;4982878;28;20022;-68
2022/10/11 05:36:04;;;;;;;4.32;2.55;;;22.40;58.20;;;;;;4995691;28;20026;-68
2022/10/11 05:38:30;;;;;;;3.10;2.17;;;22.40;58.20;;;;;;4992509;28;20351;-68
2022/10/11 05:40:59;;;;;;;3.30;2.20;;;22.40;58.30;;;;;;4992697;28;20022;-68
2022/10/11 05:43:25;;;;;;;;;;;22.40;58.20;;;;;;4966308;28;20041;-69
2022/10/11 05:45:50;;;;;;;3.30;2.30;;;22.40;58.30;;;;;;4996874;28;19906;-68
2022/10/11 05:48:16;;;;;;;4.40;2.30;;;22.40;58.20;;;;;;4990626;28;20058;-68
2022/10/11 05:50:42;;;;;;;3.90;2.67;;;22.40;58.20;;;;;;4988769;28;20030;-69
2022/10/11 05:53:07;;;;;;;3.72;2.40;;;22.40;58.30;;;;;;5000825;28;20022;-68
2022/10/11 05:55:42;;;;;;;5.32;2.50;;;22.40;58.30;;;;;;5000240;28;20075;-68
2022/10/11 05:58:13;;;;;;;3.78;2.47;;;22.40;58.30;;;;;;4999333;28;20033;-68
2022/10/11 06:00:39;;;;;;;3.33;2.00;;;22.40;58.30;;;;;;4997496;28;20414;-68
2022/10/11 06:03:07;;;;;;;4.22;2.50;;;22.40;58.30;;;;;;4997000;28;20025;-68
2022/10/11 06:05:34;;;;;;;3.75;2.05;;;22.40;58.30;;;;;;4995825;28;20039;-68
2022/10/11 06:08:00;;;;;;;3.42;2.40;;;22.40;58.30;;;;;;4998754;28;20029;-68
2022/10/11 06:10:26;;;;;;;3.78;2.25;;;22.40;58.30;;;;;;4998657;28;20042;-68
2022/10/11 06:12:51;;;;;;;3.17;2.08;;;22.40;58.30;;;;;;4987524;28;20385;-68
2022/10/11 06:15:17;;;;;;;3.05;2.22;;;22.40;58.30;;;;;;4998550;28;20490;-69
2022/10/11 06:17:43;;;;;;;4.50;2.33;;;22.40;58.30;;;;;;4991549;28;20446;-68
2022/10/11 06:20:09;;;;;;;3.60;2.45;;;22.40;58.30;;;;;;5000308;28;20030;-68
2022/10/11 06:22:35;;;;;;;3.45;2.30;;;22.40;58.30;;;;;;4996850;28;20070;-68
2022/10/11 06:25:00;;;;;;;3.90;2.30;;;22.40;58.30;;;;;;4996776;28;20022;-68
2022/10/11 06:27:26;;;;;;;3.35;2.47;;;22.40;58.30;;;;;;4994278;28;20063;-68
2022/10/11 06:29:52;;;;;;;3.20;2.50;;;22.40;58.30;;;;;;4980278;28;20030;-69
2022/10/11 06:32:18;;;;;;;3.53;2.30;;;22.40;58.30;;;;;;4994001;28;20450;-68
2022/10/11 06:34:43;;;;;;;3.22;2.10;;;22.40;58.30;;;;;;4999348;28;20030;-68
2022/10/11 06:37:09;;;;;;;3.72;2.28;;;22.30;58.20;;;;;;4981765;28;20141;-67
2022/10/11 06:39:35;;;;;;;3.47;2.28;;;22.40;58.30;;;;;;4996641;28;20097;-68
2022/10/11 06:42:00;;;;;;;4.70;2.42;;;22.40;58.30;;;;;;4997674;28;20031;-68
2022/10/11 06:44:26;;;;;;;3.88;2.20;;;22.40;58.30;;;;;;4998060;28;20112;-68
2022/10/11 06:46:52;;;;;;;3.97;2.42;;;22.40;58.20;;;;;;4999170;28;20127;-68
2022/10/11 06:49:17;;;;;;;3.47;2.15;;;22.40;58.20;;;;;;4995399;28;20084;-68
2022/10/11 06:51:43;;;;;;;3.05;2.20;;;22.40;58.20;;;;;;4996185;28;20034;-68
2022/10/11 06:54:09;;;;;;;3.05;2.22;;;22.40;58.20;;;;;;5003876;28;20025;-68
2022/10/11 06:56:34;;;;;;;3.47;2.25;;;22.40;58.20;;;;;;4984342;28;20060;-68
2022/10/11 06:59:00;;;;;;;3.33;2.15;;;22.40;58.20;;;;;;5002774;28;20062;-68
2022/10/11 07:01:26;;;;;;;3.42;2.10;;;22.40;58.20;;;;;;5000070;28;20030;-68
2022/10/11 07:03:54;;;;;;;3.67;2.40;;;22.40;58.20;;;;;;5001148;28;20481;-68
2022/10/11 07:06:22;;;;;;;3.55;2.10;;;22.40;58.20;;;;;;4981895;28;20030;-67
2022/10/11 07:08:48;;;;;;;3.35;2.30;;;22.40;58.20;;;;;;4998250;28;20031;-68
2022/10/11 07:11:20;;;;;;;3.40;2.13;;;22.40;58.20;;;;;;5000586;28;20149;-68
2022/10/11 07:13:58;;;;;;;3.95;2.10;;;22.40;58.20;;;;;;5001033;28;20036;-68
2022/10/11 07:16:24;;;;;;;3.25;2.15;;;22.40;58.20;;;;;;5002905;28;20045;-68
2022/10/11 07:18:54;;;;;;;3.25;2.13;;;22.40;58.20;;;;;;4999060;28;20498;-68
2022/10/11 07:21:20;;;;;;;3.30;2.20;;;22.40;58.20;;;;;;4983941;28;20510;-68
2022/10/11 07:23:46;;;;;;;3.17;2.13;;;22.30;58.20;;;;;;4999707;28;20033;-68
2022/10/11 07:26:12;;;;;;;3.53;2.22;;;22.40;58.20;;;;;;5000206;28;20030;-68
2022/10/11 07:28:39;;;;;;;3.63;2.25;;;22.30;58.20;;;;;;4997390;28;20427;-68
2022/10/11 07:31:27;;;;;;;3.30;2.15;;;22.30;58.10;;;;;;4970354;28;20037;-68
2022/10/11 07:33:52;;;;;;;3.33;2.28;;;22.30;58.10;;;;;;4993939;28;20057;-68
2022/10/11 07:36:18;;;;;;;3.78;2.22;;;22.40;58.20;;;;;;4976905;28;20916;-68
2022/10/11 07:38:45;;;;;;;3.60;2.17;;;22.40;58.20;;;;;;5002203;28;20027;-68
2022/10/11 07:41:12;;;;;;;3.90;2.20;;;22.30;58.10;;;;;;5001871;28;20053;-68
2022/10/11 07:43:37;;;;;;;4.13;2.47;;;22.30;58.10;;;;;;5000776;28;20504;-68
2022/10/11 07:46:04;;;;;;;2.88;2.10;;;22.30;58.10;;;;;;4997847;28;20165;-67
2022/10/11 07:48:31;;;;;;;2.95;2.00;;;22.30;58.10;;;;;;4978856;28;20097;-68
2022/10/11 07:51:10;;;;;;;2.83;2.10;;;22.30;58.10;;;;;;5003364;28;20026;-68
2022/10/11 07:53:37;;;;;;;;;;;22.40;58.20;;;;;;5002367;28;20030;-68
2022/10/11 07:56:03;;;;;;;3.70;2.20;;;22.30;58.10;;;;;;4992888;28;20487;-68
2022/10/11 07:58:28;;;;;;;3.30;2.20;;;22.30;58.10;;;;;;4999021;28;20031;-68
2022/10/11 08:00:54;;;;;;;3.47;2.22;;;22.30;58.10;;;;;;4998339;28;20034;-68
2022/10/11 08:03:20;;;;;;;3.60;2.10;;;22.30;58.10;;;;;;5000715;28;20567;-69
2022/10/11 08:05:45;;;;;;;2.95;2.00;;;22.30;58.10;;;;;;4998755;28;20046;-68
2022/10/11 08:08:11;;;;;;;3.30;2.20;;;22.30;58.10;;;;;;4996041;28;20101;-68
2022/10/11 08:10:38;;;;;;;3.75;2.35;;;22.30;58.10;;;;;;4982960;28;20426;-68
2022/10/11 08:13:04;;;;;;;2.75;1.95;;;22.30;58.10;;;;;;4992871;28;20023;-68
2022/10/11 08:15:30;;;;;;;4.25;2.60;;;22.30;58.10;;;;;;5002185;28;20047;-68
2022/10/11 08:17:55;;;;;;;3.95;2.13;;;22.30;58.10;;;;;;4999014;28;20034;-68
2022/10/11 08:20:21;;;;;;;3.75;2.22;;;22.30;58.10;;;;;;4994075;28;20033;-68
2022/10/11 08:22:46;;;;;;;2.75;1.88;;;22.30;58.10;;;;;;4964238;28;20504;-68
2022/10/11 08:25:12;;;;;;;3.45;2.20;;;22.30;58.10;;;;;;5002421;28;20370;-68
2022/10/11 08:27:38;;;;;;;3.08;2.38;;;22.30;58.10;;;;;;5000194;28;20027;-68
2022/10/11 08:30:04;;;;;;;4.00;2.10;;;22.30;58.10;;;;;;5000098;28;20176;-68
2022/10/11 08:32:30;;;;;;;3.00;2.25;;;22.30;58.10;;;;;;5001132;28;20528;-68
2022/10/11 08:34:56;;;;;;;3.30;2.08;;;22.30;58.10;;;;;;5000000;28;20030;-68
2022/10/11 08:37:21;;;;;;;3.30;2.20;;;22.30;58.10;;;;;;4998465;28;20038;-68
2022/10/11 08:39:47;;;;;;;3.22;2.00;;;22.30;58.10;;;;;;4979666;28;20807;-68
2022/10/11 08:42:38;;;;;;;3.45;1.88;;;22.30;58.20;;;;;;5001067;28;20041;-68
2022/10/11 08:45:15;;;;;;;3.25;2.08;;;22.30;58.20;;;;;;4974867;28;20133;-67
2022/10/11 08:47:45;;;;;;;3.25;2.05;;;22.20;58.10;;;;;;4981417;28;20034;-68
2022/10/11 08:50:22;;;;;;;3.17;2.05;;;22.20;58.20;;;;;;4997018;28;20130;-68
2022/10/11 08:52:56;;;;;;;2.63;1.85;;;22.20;58.10;;;;;;4978850;28;20063;-68
2022/10/11 08:55:49;;;;;;;3.25;2.08;;;22.20;58.10;;;;;;4998289;28;20049;-68
2022/10/11 08:58:21;;;;;;;4.10;2.20;;;22.20;58.10;;;;;;4993693;28;20350;-68
2022/10/11 09:00:51;;;;;;;3.58;2.20;;;22.20;58.20;;;;;;4998755;28;20032;-68
2022/10/11 09:03:40;;;;;;;2.85;2.03;;;22.20;58.20;;;;;;4978266;28;20087;-68
2022/10/11 09:06:12;;;;;;;3.03;2.17;;;22.20;58.10;;;;;;4988938;28;20026;-68
2022/10/11 09:08:52;;;;;;;3.47;2.15;;;22.20;58.10;;;;;;4998103;28;20376;-67
2022/10/11 09:11:32;;;;;;;3.05;2.08;;;22.20;58.20;;;;;;5000496;28;20503;-68
2022/10/11 09:14:05;;;;;;;3.22;2.10;;;22.20;58.20;;;;;;4998992;28;20353;-68
2022/10/11 09:16:44;;;;;;;3.22;2.10;;;22.20;58.20;;;;;;4999819;28;20026;-68
2022/10/11 09:19:38;;;;;;;2.88;1.90;;;22.20;58.20;;;;;;5000424;28;20026;-68
2022/10/11 09:22:27;;;;;;;3.10;2.10;;;22.20;58.20;;;;;;4996524;28;20499;-68
2022/10/11 09:25:01;;;;;;;3.95;1.98;;;22.20;58.20;;;;;;4996339;28;20034;-67
2022/10/11 09:27:36;;;;;;;3.53;2.17;;;22.20;58.20;;;;;;4981959;28;20035;-68
2022/10/11 09:30:13;;;;;;;2.97;2.00;;;22.20;58.70;;;;;;4994069;28;20034;-68
2022/10/11 09:32:43;;;;;;;2.38;1.75;;;22.20;58.20;;;;;;4998874;28;20042;-68
2022/10/11 09:35:16;;;;;;;3.45;2.03;;;22.20;58.70;;;;;;4999645;28;20064;-68
2022/10/11 09:38:13;;;;;;;2.92;2.00;;;22.20;58.20;;;;;;4962666;28;20090;-68
2022/10/11 09:40:53;;;;;;;2.60;1.77;;;22.20;58.20;;;;;;4987186;28;20026;-68
2022/10/11 09:43:19;;;;;;;2.88;2.08;;;22.20;58.20;;;;;;4986896;28;20030;-68
2022/10/11 09:45:45;;;;;;;3.60;2.20;;;22.20;58.20;;;;;;5000072;28;20045;-68
2022/10/11 09:48:25;;;;;;;2.90;1.90;;;22.20;58.20;;;;;;4996626;28;20026;-67
2022/10/11 09:50:53;;;;;;;2.92;2.00;;;22.20;58.30;;;;;;4997903;28;20030;-68
2022/10/11 09:53:20;;;;;;;3.33;2.20;;;22.20;58.20;;;;;;5000892;28;20018;-68
2022/10/11 09:55:59;;;;;;;2.70;1.90;;;22.20;58.20;;;;;;4999752;28;20109;-68
2022/10/11 09:58:34;;;;;;;3.50;1.80;;;22.20;58.20;;;;;;4981548;28;20517;-68
2022/10/11 10:01:04;;;;;;;2.88;2.05;;;22.20;58.20;;;;;;4997272;28;20117;-68
2022/10/11 10:03:38;;;;;;;2.95;2.00;;;22.20;58.20;;;;;;4997222;28;20064;-68
2022/10/11 10:06:16;;;;;;;2.90;1.90;;;22.20;58.20;;;;;;4997072;28;20033;-69
2022/10/11 10:08:44;;;;;;;2.60;1.70;;;22.20;58.20;;;;;;4961295;28;20562;-68
2022/10/11 10:11:10;;;;;;;3.30;2.00;;;22.20;58.10;;;;;;4979736;28;20023;-68
2022/10/11 10:13:50;;;;;;;2.40;1.60;;;22.20;58.20;;;;;;4995842;28;20034;-68
2022/10/11 10:16:33;;;;;;;2.72;1.80;;;22.20;58.20;;;;;;4993467;28;20391;-68
2022/10/11 10:19:15;;;;;;;2.78;1.83;;;22.20;58.70;;;;;;4993664;28;20026;-68
2022/10/11 10:21:50;;;;;;;2.92;1.70;;;22.20;58.20;;;;;;4978234;28;20037;-68
2022/10/11 10:24:18;;;;;;;2.75;1.75;;;22.20;58.10;;;;;;4998591;28;20104;-68
2022/10/11 10:27:04;;;;;;;2.78;1.83;;;22.20;58.10;;;;;;4982413;28;20030;-68
2022/10/11 10:29:30;;;;;;;2.58;1.70;;;22.20;58.10;;;;;;4981437;28;20117;-69
2022/10/11 10:31:56;;;;;;;2.47;1.52;;;22.20;58.10;;;;;;4982495;28;20040;-68
2022/10/11 10:34:34;;;;;;;2.58;1.67;;;22.20;58.10;;;;;;4997840;28;20026;-68
2022/10/11 10:37:29;;;;;;;2.88;1.77;;;22.20;58.10;;;;;;4998791;28;20026;-68
2022/10/11 10:40:35;;;;;;;2.50;1.55;;;22.20;58.10;;;;;;4957992;28;20127;-68
2022/10/11 10:43:00;;;;;;;3.67;2.00;;;22.20;58.10;;;;;;4996567;28;20470;-68
2022/10/11 10:45:36;;;;;;;2.85;1.70;;;22.20;58.10;;;;;;4998959;28;20022;-68
2022/10/11 10:48:38;;;;;;;2.75;1.80;;;22.20;58.10;;;;;;4997112;28;20026;-68
2022/10/11 10:51:46;;;;;;;2.55;1.80;;;22.20;58.10;;;;;;4998803;28;20497;-68
2022/10/11 10:54:39;;;;;;;3.25;1.80;;;22.20;58.10;;;;;;4968085;28;20076;-68
2022/10/11 10:57:31;;;;;;;2.45;1.60;;;22.20;58.10;;;;;;4996538;28;20436;-68
2022/10/11 11:00:09;;;;;;;2.72;1.95;;;22.20;58.10;;;;;;4993992;28;20034;-68
2022/10/11 11:02:39;;;;;;;2.65;1.85;;;22.20;58.10;;;;;;4996857;28;20042;-68
2022/10/11 11:05:15;;;;;;;2.65;1.80;;;22.20;58.10;;;;;;4996823;28;20121;-68
2022/10/11 11:07:48;;;;;;;2.75;1.70;;;22.20;58.10;;;;;;4991717;28;20019;-67
2022/10/11 11:10:53;;;;;;;2.67;1.73;;;22.20;58.10;;;;;;4999024;28;20026;-68
2022/10/11 11:13:22;;;;;;;2.58;1.80;;;22.20;58.10;;;;;;4963108;28;20121;-67
2022/10/11 11:16:12;;;;;;;2.55;1.75;;;22.20;58.10;;;;;;4980489;28;20541;-68
2022/10/11 11:18:56;;;;;;;2.58;1.70;;;22.20;58.10;;;;;;4978614;28;20493;-68
2022/10/11 11:21:31;;;;;;;3.20;1.58;;;22.20;58.00;;;;;;4992599;28;20741;-67
2022/10/11 11:24:05;;;;;;;2.55;1.67;;;22.20;58.00;;;;;;4993569;28;20437;-67
2022/10/11 11:26:44;;;;;;;3.03;1.80;;;22.20;58.00;;;;;;4994197;28;20026;-68
2022/10/11 11:29:34;;;;;;;2.55;1.90;;;22.20;58.00;;;;;;4997857;28;20481;-67
2022/10/11 11:32:18;;;;;;;2.45;1.60;;;22.20;58.00;;;;;;4995745;28;20486;-67
2022/10/11 11:34:52;;;;;;;2.47;1.65;;;22.20;58.00;;;;;;4993940;28;20033;-67
2022/10/11 11:37:31;;;;;;;3.08;1.80;;;22.20;58.00;;;;;;4978373;28;20513;-67
2022/10/11 11:40:11;;;;;;;2.95;1.60;;;22.20;58.00;;;;;;4978833;28;20543;-67
2022/10/11 11:42:54;;;;;;;2.90;1.88;;;22.20;58.10;;;;;;4997976;28;20038;-67
2022/10/11 11:45:48;;;;;;;2.78;1.75;;;22.20;58.10;;;;;;4977545;28;20043;-67
2022/10/11 11:48:19;;;;;;;2.50;1.70;;;22.20;58.10;;;;;;4970776;28;20092;-68
2022/10/11 11:51:12;;;;;;;2.50;1.60;;;22.20;58.10;;;;;;5001719;28;20026;-68
2022/10/11 11:54:07;;;;;;;3.20;2.00;;;22.20;58.10;;;;;;4982970;28;20030;-67
2022/10/11 11:56:47;;;;;;;3.60;1.90;;;22.20;58.10;;;;;;4999436;28;20530;-67
2022/10/11 11:59:22;;;;;;;3.25;2.00;;;22.20;58.10;;;;;;4995334;28;20026;-67
2022/10/11 12:02:11;;;;;;;3.03;1.90;;;22.20;58.10;;;;;;4996769;28;20058;-68
2022/10/11 12:04:41;;;;;;;3.20;2.00;;;22.20;58.20;;;;;;4996485;28;20028;-68
2022/10/11 12:07:10;;;;;;;3.63;1.77;;;22.20;58.10;;;;;;5000000;28;20034;-67
2022/10/11 12:09:37;;;;;;;2.70;1.80;;;22.20;58.10;;;;;;4977152;28;20030;-67
2022/10/11 12:12:06;;;;;;;3.15;1.90;;;22.20;58.20;;;;;;4983040;28;20061;-67
2022/10/11 12:14:31;;;;;;;3.53;1.90;;;22.20;58.10;;;;;;5004614;28;20494;-67
2022/10/11 12:17:06;;;;;;;2.78;1.80;;;22.20;58.10;;;;;;5000148;28;20308;-67
2022/10/11 12:19:32;;;;;;;2.53;1.60;;;22.20;58.20;;;;;;5000126;28;20104;-67
2022/10/11 12:22:34;;;;;;;4.45;2.10;;;22.20;58.10;;;;;;4982298;28;20125;-67
2022/10/11 12:25:08;;;;;;;2.70;1.65;;;22.20;58.10;;;;;;5000762;28;20026;-67
2022/10/11 12:27:42;;;;;;;3.40;2.03;;;22.20;58.40;;;;;;4981216;28;20030;-67
2022/10/11 12:30:38;;;;;;;3.75;2.38;;;22.20;58.10;;;;;;4998977;28;20469;-67
2022/10/11 12:33:20;;;;;;;3.78;1.73;;;22.20;58.10;;;;;;5000443;28;20080;-67
2022/10/11 12:35:51;;;;;;;3.33;2.10;;;22.20;58.10;;;;;;4995660;28;20027;-68
2022/10/11 12:38:32;;;;;;;3.15;2.10;;;22.20;58.10;;;;;;4995811;28;20022;-68
2022/10/11 12:41:07;;;;;;;3.35;1.95;;;22.20;58.20;;;;;;4995278;28;20117;-67
2022/10/11 12:43:35;;;;;;;3.65;2.05;;;22.20;58.20;;;;;;5001027;28;20031;-67
2022/10/11 12:46:41;;;;;;;3.65;2.10;;;22.20;58.20;;;;;;4999551;28;20019;-67
2022/10/11 12:49:36;;;;;;;4.80;2.50;;;22.20;58.20;;;;;;4934475;29;20034;-67
2022/10/11 12:52:30;;;;;;;3.85;2.20;;;22.20;58.20;;;;;;4944404;28;20068;-67
2022/10/11 12:55:30;;;;;;;4.28;2.50;;;22.20;58.20;;;;;;4987312;28;20382;-67
2022/10/11 12:58:06;;;;;;;3.30;2.15;;;22.20;58.20;;;;;;4971635;28;20053;-67
2022/10/11 13:00:44;;;;;;;4.28;2.17;;;22.20;58.20;;;;;;5000202;28;20453;-67
2022/10/11 13:03:28;;;;;;;3.22;2.08;;;22.20;58.20;;;;;;4982100;28;20064;-68
2022/10/11 13:05:56;;;;;;;3.63;2.20;;;22.20;58.20;;;;;;4999516;28;20563;-68
2022/10/11 13:08:30;;;;;;;3.95;2.35;;;22.20;58.20;;;;;;5000562;28;20022;-67
2022/10/11 13:11:00;;;;;;;3.85;2.40;;;22.20;58.20;;;;;;5000782;28;20408;-67
2022/10/11 13:13:32;;;;;;;4.05;2.10;;;22.20;58.20;;;;;;5000991;28;20030;-67